River Hills, Wisconsin
Current Conditions -  °F | °C
As of 6:45 PM on Friday 24 Oct 2014 (Local Time) from KMWC Reporting Station
Broken Clouds Broken Clouds  
Wind Chill: 14°   Ceiling: 8000
Heat Index: 14°   Visibility: 10mi
Dew Point:   Wind: 0mph
Humidity: 72%   Direction: NA
Pressure: 29.94"   Gusts: NA
Location:  43.1576°N, 87.9144°W
Report Text: KMWC 242345Z AUTO 00000KT 10SM BKN080 14/09 A2994
Loading
Personal Weather Stations






























Interactive Weather Map
Tropical Storm Tracking
New forecast layout! Learn more

10-Day Weather Forecast

Advertisements
Track Severe Weather on mobile